sensor_id;sensor_type;location;lat;lon;timestamp;temperature;humidity
63317;DHT22;49822;41.468;13.560;2023-05-07T00:02:01;16.90;88.40
63317;DHT22;49822;41.468;13.560;2023-05-07T00:04:29;16.90;88.70
63317;DHT22;49822;41.468;13.560;2023-05-07T00:07:21;16.90;88.90
63317;DHT22;49822;41.468;13.560;2023-05-07T00:09:51;16.80;89.60
63317;DHT22;49822;41.468;13.560;2023-05-07T00:12:17;16.50;90.30
63317;DHT22;49822;41.468;13.560;2023-05-07T00:14:43;16.60;90.40
63317;DHT22;49822;41.468;13.560;2023-05-07T00:17:09;16.60;90.70
63317;DHT22;49822;41.468;13.560;2023-05-07T00:19:35;16.70;90.80
63317;DHT22;49822;41.468;13.560;2023-05-07T00:22:02;16.30;91.10
63317;DHT22;49822;41.468;13.560;2023-05-07T00:24:28;16.30;92.10
63317;DHT22;49822;41.468;13.560;2023-05-07T00:26:54;16.30;92.10
63317;DHT22;49822;41.468;13.560;2023-05-07T00:29:20;16.30;90.80
63317;DHT22;49822;41.468;13.560;2023-05-07T00:31:48;16.40;90.80
63317;DHT22;49822;41.468;13.560;2023-05-07T00:34:14;16.40;90.00
63317;DHT22;49822;41.468;13.560;2023-05-07T00:36:40;16.40;89.90
63317;DHT22;49822;41.468;13.560;2023-05-07T00:39:06;16.40;90.10
63317;DHT22;49822;41.468;13.560;2023-05-07T00:41:32;16.30;90.50
63317;DHT22;49822;41.468;13.560;2023-05-07T00:43:58;16.40;90.30
63317;DHT22;49822;41.468;13.560;2023-05-07T00:46:24;16.40;90.30
63317;DHT22;49822;41.468;13.560;2023-05-07T00:48:51;16.20;90.70
63317;DHT22;49822;41.468;13.560;2023-05-07T00:51:18;16.20;91.40
63317;DHT22;49822;41.468;13.560;2023-05-07T00:53:44;16.10;91.80
63317;DHT22;49822;41.468;13.560;2023-05-07T00:56:11;15.90;92.50
63317;DHT22;49822;41.468;13.560;2023-05-07T00:58:37;15.90;92.30
63317;DHT22;49822;41.468;13.560;2023-05-07T01:01:04;15.90;92.60
63317;DHT22;49822;41.468;13.560;2023-05-07T01:03:30;16.00;92.20
63317;DHT22;49822;41.468;13.560;2023-05-07T01:05:57;16.10;92.10
63317;DHT22;49822;41.468;13.560;2023-05-07T01:08:25;16.20;91.80
63317;DHT22;49822;41.468;13.560;2023-05-07T01:10:55;16.20;91.60
63317;DHT22;49822;41.468;13.560;2023-05-07T01:13:22;16.20;90.90
63317;DHT22;49822;41.468;13.560;2023-05-07T01:15:49;16.00;91.80
63317;DHT22;49822;41.468;13.560;2023-05-07T01:18:15;16.00;92.10
63317;DHT22;49822;41.468;13.560;2023-05-07T01:20:42;16.10;92.10
63317;DHT22;49822;41.468;13.560;2023-05-07T01:23:10;16.10;91.80
63317;DHT22;49822;41.468;13.560;2023-05-07T01:25:37;16.20;91.10
63317;DHT22;49822;41.468;13.560;2023-05-07T01:28:04;16.20;90.90
63317;DHT22;49822;41.468;13.560;2023-05-07T01:30:36;16.20;90.30
63317;DHT22;49822;41.468;13.560;2023-05-07T01:33:13;16.20;90.70
63317;DHT22;49822;41.468;13.560;2023-05-07T01:35:43;16.20;90.30
63317;DHT22;49822;41.468;13.560;2023-05-07T01:38:12;16.20;90.00
63317;DHT22;49822;41.468;13.560;2023-05-07T01:40:41;16.00;89.70
63317;DHT22;49822;41.468;13.560;2023-05-07T01:43:08;16.00;90.60
63317;DHT22;49822;41.468;13.560;2023-05-07T01:45:38;15.90;91.50
63317;DHT22;49822;41.468;13.560;2023-05-07T01:48:07;15.90;91.20
63317;DHT22;49822;41.468;13.560;2023-05-07T01:50:34;16.00;91.20
63317;DHT22;49822;41.468;13.560;2023-05-07T01:53:02;15.90;91.70
63317;DHT22;49822;41.468;13.560;2023-05-07T01:55:29;15.90;92.20
63317;DHT22;49822;41.468;13.560;2023-05-07T01:57:55;15.80;91.70
63317;DHT22;49822;41.468;13.560;2023-05-07T02:00:24;15.70;91.80
63317;DHT22;49822;41.468;13.560;2023-05-07T02:02:54;15.70;92.30
63317;DHT22;49822;41.468;13.560;2023-05-07T02:05:32;15.70;91.70
63317;DHT22;49822;41.468;13.560;2023-05-07T02:08:04;15.90;91.60
63317;DHT22;49822;41.468;13.560;2023-05-07T02:10:31;15.90;91.20
63317;DHT22;49822;41.468;13.560;2023-05-07T02:12:58;15.80;90.10
63317;DHT22;49822;41.468;13.560;2023-05-07T02:15:29;15.70;90.60
63317;DHT22;49822;41.468;13.560;2023-05-07T02:18:03;15.70;91.10
63317;DHT22;49822;41.468;13.560;2023-05-07T02:20:30;15.80;91.50
63317;DHT22;49822;41.468;13.560;2023-05-07T02:22:56;15.90;91.30
63317;DHT22;49822;41.468;13.560;2023-05-07T02:25:22;15.70;90.80
63317;DHT22;49822;41.468;13.560;2023-05-07T02:27:49;15.80;90.20
63317;DHT22;49822;41.468;13.560;2023-05-07T02:30:19;15.70;91.50
63317;DHT22;49822;41.468;13.560;2023-05-07T02:32:52;15.60;91.80
63317;DHT22;49822;41.468;13.560;2023-05-07T02:35:18;15.70;91.70
63317;DHT22;49822;41.468;13.560;2023-05-07T02:37:44;15.70;91.70
63317;DHT22;49822;41.468;13.560;2023-05-07T02:40:11;15.80;91.40
63317;DHT22;49822;41.468;13.560;2023-05-07T02:42:38;15.80;91.20
63317;DHT22;49822;41.468;13.560;2023-05-07T02:45:05;15.90;90.40
63317;DHT22;49822;41.468;13.560;2023-05-07T02:47:32;15.80;90.20
63317;DHT22;49822;41.468;13.560;2023-05-07T02:50:00;15.80;90.60
63317;DHT22;49822;41.468;13.560;2023-05-07T02:52:26;15.80;91.20
63317;DHT22;49822;41.468;13.560;2023-05-07T02:54:52;15.70;91.20
63317;DHT22;49822;41.468;13.560;2023-05-07T02:57:18;15.60;90.00
63317;DHT22;49822;41.468;13.560;2023-05-07T02:59:44;15.60;91.30
63317;DHT22;49822;41.468;13.560;2023-05-07T03:02:12;15.60;90.70
63317;DHT22;49822;41.468;13.560;2023-05-07T03:04:39;15.70;90.60
63317;DHT22;49822;41.468;13.560;2023-05-07T03:07:06;15.50;91.70
63317;DHT22;49822;41.468;13.560;2023-05-07T03:09:32;15.50;92.00
63317;DHT22;49822;41.468;13.560;2023-05-07T03:11:58;15.50;91.70
63317;DHT22;49822;41.468;13.560;2023-05-07T03:14:25;15.60;91.70
63317;DHT22;49822;41.468;13.560;2023-05-07T03:16:51;15.70;91.60
63317;DHT22;49822;41.468;13.560;2023-05-07T03:19:17;15.70;91.40
63317;DHT22;49822;41.468;13.560;2023-05-07T03:21:44;15.60;91.00
63317;DHT22;49822;41.468;13.560;2023-05-07T03:24:09;15.60;91.30
63317;DHT22;49822;41.468;13.560;2023-05-07T03:26:36;15.70;92.20
63317;DHT22;49822;41.468;13.560;2023-05-07T03:29:02;15.70;92.00
63317;DHT22;49822;41.468;13.560;2023-05-07T03:31:29;15.70;90.80
63317;DHT22;49822;41.468;13.560;2023-05-07T03:33:57;15.60;91.60
63317;DHT22;49822;41.468;13.560;2023-05-07T03:36:24;15.50;91.90
63317;DHT22;49822;41.468;13.560;2023-05-07T03:38:53;15.50;92.20
63317;DHT22;49822;41.468;13.560;2023-05-07T03:41:22;15.50;91.90
63317;DHT22;49822;41.468;13.560;2023-05-07T03:43:49;15.60;92.10
63317;DHT22;49822;41.468;13.560;2023-05-07T03:46:15;15.70;92.00
63317;DHT22;49822;41.468;13.560;2023-05-07T03:48:42;15.70;92.00
63317;DHT22;49822;41.468;13.560;2023-05-07T03:51:09;15.80;92.10
63317;DHT22;49822;41.468;13.560;2023-05-07T03:53:35;15.80;92.00
63317;DHT22;49822;41.468;13.560;2023-05-07T03:56:01;15.80;92.10
63317;DHT22;49822;41.468;13.560;2023-05-07T03:58:32;15.90;92.10
63317;DHT22;49822;41.468;13.560;2023-05-07T04:01:04;15.90;91.60
63317;DHT22;49822;41.468;13.560;2023-05-07T04:03:30;16.00;91.60
63317;DHT22;49822;41.468;13.560;2023-05-07T04:05:58;16.00;91.40
63317;DHT22;49822;41.468;13.560;2023-05-07T04:08:24;16.10;91.60
63317;DHT22;49822;41.468;13.560;2023-05-07T04:10:57;16.10;91.50
63317;DHT22;49822;41.468;13.560;2023-05-07T04:13:27;16.10;91.50
63317;DHT22;49822;41.468;13.560;2023-05-07T04:15:55;16.10;91.50
63317;DHT22;49822;41.468;13.560;2023-05-07T04:18:21;16.20;91.40
63317;DHT22;49822;41.468;13.560;2023-05-07T04:20:48;16.10;91.70
63317;DHT22;49822;41.468;13.560;2023-05-07T04:23:17;16.20;91.50
63317;DHT22;49822;41.468;13.560;2023-05-07T04:25:44;16.30;91.50
63317;DHT22;49822;41.468;13.560;2023-05-07T04:28:24;16.20;91.60
63317;DHT22;49822;41.468;13.560;2023-05-07T04:30:51;16.30;91.50
63317;DHT22;49822;41.468;13.560;2023-05-07T04:33:19;16.30;91.90
63317;DHT22;49822;41.468;13.560;2023-05-07T04:35:46;16.20;92.10
63317;DHT22;49822;41.468;13.560;2023-05-07T04:38:13;16.10;92.00
63317;DHT22;49822;41.468;13.560;2023-05-07T04:40:39;16.20;91.90
63317;DHT22;49822;41.468;13.560;2023-05-07T04:43:08;16.20;91.90
63317;DHT22;49822;41.468;13.560;2023-05-07T04:45:42;16.40;91.90
63317;DHT22;49822;41.468;13.560;2023-05-07T04:48:10;16.40;91.90
63317;DHT22;49822;41.468;13.560;2023-05-07T04:50:39;16.50;91.90
63317;DHT22;49822;41.468;13.560;2023-05-07T04:53:07;16.40;92.00
63317;DHT22;49822;41.468;13.560;2023-05-07T04:55:33;16.50;92.00
63317;DHT22;49822;41.468;13.560;2023-05-07T04:57:59;16.50;92.10
63317;DHT22;49822;41.468;13.560;2023-05-07T05:00:29;16.60;92.00
63317;DHT22;49822;41.468;13.560;2023-05-07T05:02:57;16.60;92.00
63317;DHT22;49822;41.468;13.560;2023-05-07T05:05:23;16.60;91.80
63317;DHT22;49822;41.468;13.560;2023-05-07T05:07:52;16.80;92.20
63317;DHT22;49822;41.468;13.560;2023-05-07T05:10:19;16.80;92.10
63317;DHT22;49822;41.468;13.560;2023-05-07T05:12:46;16.80;92.50
63317;DHT22;49822;41.468;13.560;2023-05-07T05:15:12;16.80;92.40
63317;DHT22;49822;41.468;13.560;2023-05-07T05:17:39;16.90;92.10
63317;DHT22;49822;41.468;13.560;2023-05-07T05:20:07;16.90;92.30
63317;DHT22;49822;41.468;13.560;2023-05-07T05:22:35;16.90;92.00
63317;DHT22;49822;41.468;13.560;2023-05-07T05:25:01;16.90;92.30
63317;DHT22;49822;41.468;13.560;2023-05-07T05:27:28;16.90;92.30
63317;DHT22;49822;41.468;13.560;2023-05-07T05:29:56;17.00;92.10
63317;DHT22;49822;41.468;13.560;2023-05-07T05:32:23;17.20;92.30
63317;DHT22;49822;41.468;13.560;2023-05-07T05:34:52;17.20;92.30
63317;DHT22;49822;41.468;13.560;2023-05-07T05:37:18;17.40;92.00
63317;DHT22;49822;41.468;13.560;2023-05-07T05:39:45;17.40;91.80
63317;DHT22;49822;41.468;13.560;2023-05-07T05:42:11;17.50;92.00
63317;DHT22;49822;41.468;13.560;2023-05-07T05:44:38;17.50;91.70
63317;DHT22;49822;41.468;13.560;2023-05-07T05:47:04;17.70;92.10
63317;DHT22;49822;41.468;13.560;2023-05-07T05:49:31;17.80;91.70
63317;DHT22;49822;41.468;13.560;2023-05-07T05:51:58;17.90;91.50
63317;DHT22;49822;41.468;13.560;2023-05-07T05:54:26;17.80;91.40
63317;DHT22;49822;41.468;13.560;2023-05-07T05:56:52;18.00;91.10
63317;DHT22;49822;41.468;13.560;2023-05-07T05:59:18;18.00;91.60
63317;DHT22;49822;41.468;13.560;2023-05-07T06:01:44;18.10;90.80
63317;DHT22;49822;41.468;13.560;2023-05-07T06:04:11;18.10;90.90
63317;DHT22;49822;41.468;13.560;2023-05-07T06:06:37;18.10;90.90
63317;DHT22;49822;41.468;13.560;2023-05-07T06:09:04;18.10;90.90
63317;DHT22;49822;41.468;13.560;2023-05-07T06:11:38;18.10;91.00
63317;DHT22;49822;41.468;13.560;2023-05-07T06:14:06;18.20;90.30
63317;DHT22;49822;41.468;13.560;2023-05-07T06:16:36;18.20;90.50
63317;DHT22;49822;41.468;13.560;2023-05-07T06:19:06;18.30;90.70
63317;DHT22;49822;41.468;13.560;2023-05-07T06:21:32;18.40;91.00
63317;DHT22;49822;41.468;13.560;2023-05-07T06:23:58;18.50;90.80
63317;DHT22;49822;41.468;13.560;2023-05-07T06:26:24;18.60;90.50
63317;DHT22;49822;41.468;13.560;2023-05-07T06:28:52;18.70;91.20
63317;DHT22;49822;41.468;13.560;2023-05-07T06:31:19;18.80;90.70
63317;DHT22;49822;41.468;13.560;2023-05-07T06:33:56;19.10;90.40
63317;DHT22;49822;41.468;13.560;2023-05-07T06:36:27;19.10;90.00
63317;DHT22;49822;41.468;13.560;2023-05-07T06:38:57;19.30;90.00
63317;DHT22;49822;41.468;13.560;2023-05-07T06:41:23;19.40;89.20
63317;DHT22;49822;41.468;13.560;2023-05-07T06:43:49;19.40;89.00
63317;DHT22;49822;41.468;13.560;2023-05-07T06:46:38;19.50;88.50
63317;DHT22;49822;41.468;13.560;2023-05-07T06:49:06;19.50;88.30
63317;DHT22;49822;41.468;13.560;2023-05-07T06:51:32;19.60;88.00
63317;DHT22;49822;41.468;13.560;2023-05-07T06:54:02;19.70;87.80
63317;DHT22;49822;41.468;13.560;2023-05-07T06:56:32;19.60;87.40
63317;DHT22;49822;41.468;13.560;2023-05-07T06:59:00;19.80;88.00
63317;DHT22;49822;41.468;13.560;2023-05-07T07:01:26;19.90;88.00
63317;DHT22;49822;41.468;13.560;2023-05-07T07:03:53;20.00;87.80
63317;DHT22;49822;41.468;13.560;2023-05-07T07:06:21;20.10;87.30
63317;DHT22;49822;41.468;13.560;2023-05-07T07:08:47;20.00;87.50
63317;DHT22;49822;41.468;13.560;2023-05-07T07:11:15;20.10;87.00
63317;DHT22;49822;41.468;13.560;2023-05-07T07:13:42;20.10;86.90
63317;DHT22;49822;41.468;13.560;2023-05-07T07:16:09;20.10;86.90
63317;DHT22;49822;41.468;13.560;2023-05-07T07:18:37;20.10;87.20
63317;DHT22;49822;41.468;13.560;2023-05-07T07:21:04;20.20;87.00
63317;DHT22;49822;41.468;13.560;2023-05-07T07:23:30;20.20;87.50
63317;DHT22;49822;41.468;13.560;2023-05-07T07:25:57;20.20;87.20
63317;DHT22;49822;41.468;13.560;2023-05-07T07:28:23;20.20;87.30
63317;DHT22;49822;41.468;13.560;2023-05-07T07:30:54;20.20;86.90
63317;DHT22;49822;41.468;13.560;2023-05-07T07:33:23;20.30;86.70
63317;DHT22;49822;41.468;13.560;2023-05-07T07:35:50;20.40;86.90
63317;DHT22;49822;41.468;13.560;2023-05-07T07:38:16;20.40;86.50
63317;DHT22;49822;41.468;13.560;2023-05-07T07:40:43;20.50;86.70
63317;DHT22;49822;41.468;13.560;2023-05-07T07:43:13;20.60;86.90
63317;DHT22;49822;41.468;13.560;2023-05-07T07:45:44;20.70;87.00
63317;DHT22;49822;41.468;13.560;2023-05-07T07:48:19;20.70;86.50
63317;DHT22;49822;41.468;13.560;2023-05-07T07:50:51;20.80;86.20
63317;DHT22;49822;41.468;13.560;2023-05-07T07:53:20;20.80;86.20
63317;DHT22;49822;41.468;13.560;2023-05-07T07:55:49;20.80;86.30
63317;DHT22;49822;41.468;13.560;2023-05-07T07:58:18;20.80;86.10
63317;DHT22;49822;41.468;13.560;2023-05-07T08:00:50;20.90;85.40
63317;DHT22;49822;41.468;13.560;2023-05-07T08:03:26;21.10;85.00
63317;DHT22;49822;41.468;13.560;2023-05-07T08:05:57;21.10;84.80
63317;DHT22;49822;41.468;13.560;2023-05-07T08:08:24;21.10;84.70
63317;DHT22;49822;41.468;13.560;2023-05-07T08:10:52;21.20;84.60
63317;DHT22;49822;41.468;13.560;2023-05-07T08:13:26;21.30;84.30
63317;DHT22;49822;41.468;13.560;2023-05-07T08:15:57;21.40;84.20
63317;DHT22;49822;41.468;13.560;2023-05-07T08:18:31;21.50;84.50
63317;DHT22;49822;41.468;13.560;2023-05-07T08:21:02;21.60;83.80
63317;DHT22;49822;41.468;13.560;2023-05-07T08:23:28;21.70;83.80
63317;DHT22;49822;41.468;13.560;2023-05-07T08:25:54;21.70;84.00
63317;DHT22;49822;41.468;13.560;2023-05-07T08:28:22;21.90;83.80
63317;DHT22;49822;41.468;13.560;2023-05-07T08:30:52;21.90;83.50
63317;DHT22;49822;41.468;13.560;2023-05-07T08:33:23;21.90;83.00
63317;DHT22;49822;41.468;13.560;2023-05-07T08:35:51;21.90;83.40
63317;DHT22;49822;41.468;13.560;2023-05-07T08:38:17;22.10;83.30
63317;DHT22;49822;41.468;13.560;2023-05-07T08:40:44;22.10;83.20
63317;DHT22;49822;41.468;13.560;2023-05-07T08:43:19;22.20;82.70
63317;DHT22;49822;41.468;13.560;2023-05-07T08:45:49;22.30;82.90
63317;DHT22;49822;41.468;13.560;2023-05-07T08:48:22;22.40;83.10
63317;DHT22;49822;41.468;13.560;2023-05-07T08:50:58;22.40;83.20
63317;DHT22;49822;41.468;13.560;2023-05-07T08:53:26;22.30;82.20
63317;DHT22;49822;41.468;13.560;2023-05-07T08:55:53;22.50;82.80
63317;DHT22;49822;41.468;13.560;2023-05-07T08:58:19;22.50;82.50
63317;DHT22;49822;41.468;13.560;2023-05-07T09:00:48;22.60;82.60
63317;DHT22;49822;41.468;13.560;2023-05-07T09:03:15;22.80;82.30
63317;DHT22;49822;41.468;13.560;2023-05-07T09:05:45;22.60;81.80
63317;DHT22;49822;41.468;13.560;2023-05-07T09:08:15;22.70;82.10
63317;DHT22;49822;41.468;13.560;2023-05-07T09:10:42;22.80;82.00
63317;DHT22;49822;41.468;13.560;2023-05-07T09:13:09;22.90;82.00
63317;DHT22;49822;41.468;13.560;2023-05-07T09:15:40;22.80;81.70
63317;DHT22;49822;41.468;13.560;2023-05-07T09:18:07;23.00;81.70
63317;DHT22;49822;41.468;13.560;2023-05-07T09:20:36;23.10;80.80
63317;DHT22;49822;41.468;13.560;2023-05-07T09:23:03;22.90;80.60
63317;DHT22;49822;41.468;13.560;2023-05-07T09:25:31;22.80;81.50
63317;DHT22;49822;41.468;13.560;2023-05-07T09:28:03;22.90;81.60
63317;DHT22;49822;41.468;13.560;2023-05-07T09:30:33;23.10;82.40
63317;DHT22;49822;41.468;13.560;2023-05-07T09:33:03;23.30;81.20
63317;DHT22;49822;41.468;13.560;2023-05-07T09:35:32;23.50;81.00
63317;DHT22;49822;41.468;13.560;2023-05-07T09:38:04;23.70;80.30
63317;DHT22;49822;41.468;13.560;2023-05-07T09:40:33;23.90;79.70
63317;DHT22;49822;41.468;13.560;2023-05-07T09:43:12;23.90;79.70
63317;DHT22;49822;41.468;13.560;2023-05-07T09:45:47;24.00;79.60
63317;DHT22;49822;41.468;13.560;2023-05-07T09:48:19;24.00;78.00
63317;DHT22;49822;41.468;13.560;2023-05-07T09:50:49;24.00;79.50
63317;DHT22;49822;41.468;13.560;2023-05-07T09:53:29;24.10;79.30
63317;DHT22;49822;41.468;13.560;2023-05-07T09:55:57;24.10;79.20
63317;DHT22;49822;41.468;13.560;2023-05-07T09:58:25;24.30;78.90
63317;DHT22;49822;41.468;13.560;2023-05-07T10:00:54;24.50;79.80
63317;DHT22;49822;41.468;13.560;2023-05-07T10:03:24;24.50;79.40
63317;DHT22;49822;41.468;13.560;2023-05-07T10:05:59;24.70;79.10
63317;DHT22;49822;41.468;13.560;2023-05-07T10:08:28;24.80;78.80
63317;DHT22;49822;41.468;13.560;2023-05-07T10:10:59;24.90;78.50
63317;DHT22;49822;41.468;13.560;2023-05-07T10:13:27;25.00;78.00
63317;DHT22;49822;41.468;13.560;2023-05-07T10:15:57;25.20;78.40
63317;DHT22;49822;41.468;13.560;2023-05-07T10:18:27;25.30;77.70
63317;DHT22;49822;41.468;13.560;2023-05-07T10:21:07;25.30;78.00
63317;DHT22;49822;41.468;13.560;2023-05-07T10:23:35;25.50;78.20
63317;DHT22;49822;41.468;13.560;2023-05-07T10:26:04;25.60;78.50
63317;DHT22;49822;41.468;13.560;2023-05-07T10:28:36;25.70;77.50
63317;DHT22;49822;41.468;13.560;2023-05-07T10:32:11;25.70;77.40
63317;DHT22;49822;41.468;13.560;2023-05-07T10:34:07;25.80;77.30
63317;DHT22;49822;41.468;13.560;2023-05-07T10:36:34;25.90;76.90
63317;DHT22;49822;41.468;13.560;2023-05-07T10:39:01;26.10;77.10
63317;DHT22;49822;41.468;13.560;2023-05-07T10:41:28;26.30;76.20
63317;DHT22;49822;41.468;13.560;2023-05-07T10:43:54;26.30;76.30
63317;DHT22;49822;41.468;13.560;2023-05-07T10:46:26;26.40;76.40
63317;DHT22;49822;41.468;13.560;2023-05-07T10:52:21;26.70;75.80
63317;DHT22;49822;41.468;13.560;2023-05-07T10:58:25;27.10;73.90
63317;DHT22;49822;41.468;13.560;2023-05-07T11:01:03;27.10;74.80
63317;DHT22;49822;41.468;13.560;2023-05-07T11:04:13;27.10;74.40
63317;DHT22;49822;41.468;13.560;2023-05-07T11:15:08;27.50;73.90
63317;DHT22;49822;41.468;13.560;2023-05-07T11:20:19;27.60;74.40
63317;DHT22;49822;41.468;13.560;2023-05-07T11:22:51;27.90;73.60
63317;DHT22;49822;41.468;13.560;2023-05-07T11:25:26;27.90;73.90
63317;DHT22;49822;41.468;13.560;2023-05-07T11:28:08;28.20;73.20
63317;DHT22;49822;41.468;13.560;2023-05-07T11:30:43;28.40;72.40
63317;DHT22;49822;41.468;13.560;2023-05-07T11:33:17;28.40;72.30
63317;DHT22;49822;41.468;13.560;2023-05-07T11:35:45;28.50;71.40
63317;DHT22;49822;41.468;13.560;2023-05-07T11:38:13;28.70;70.90
63317;DHT22;49822;41.468;13.560;2023-05-07T11:43:17;29.00;70.50
63317;DHT22;49822;41.468;13.560;2023-05-07T11:45:48;28.90;71.40
63317;DHT22;49822;41.468;13.560;2023-05-07T11:48:16;29.00;69.80
63317;DHT22;49822;41.468;13.560;2023-05-07T11:50:54;29.10;69.40
63317;DHT22;49822;41.468;13.560;2023-05-07T11:53:24;29.20;69.30
63317;DHT22;49822;41.468;13.560;2023-05-07T11:55:57;29.30;69.50
63317;DHT22;49822;41.468;13.560;2023-05-07T11:58:24;29.10;70.30
63317;DHT22;49822;41.468;13.560;2023-05-07T12:00:52;29.20;69.70
63317;DHT22;49822;41.468;13.560;2023-05-07T12:03:18;29.30;69.40
63317;DHT22;49822;41.468;13.560;2023-05-07T12:05:46;29.50;69.20
63317;DHT22;49822;41.468;13.560;2023-05-07T12:08:15;29.70;68.50
63317;DHT22;49822;41.468;13.560;2023-05-07T12:10:42;29.80;68.50
63317;DHT22;49822;41.468;13.560;2023-05-07T12:13:29;29.50;68.40
63317;DHT22;49822;41.468;13.560;2023-05-07T12:15:56;29.60;69.10
63317;DHT22;49822;41.468;13.560;2023-05-07T12:18:23;29.60;68.90
63317;DHT22;49822;41.468;13.560;2023-05-07T12:20:50;29.70;68.80
63317;DHT22;49822;41.468;13.560;2023-05-07T12:23:22;29.70;68.10
63317;DHT22;49822;41.468;13.560;2023-05-07T12:25:48;29.80;68.60
63317;DHT22;49822;41.468;13.560;2023-05-07T12:28:19;29.60;69.20
63317;DHT22;49822;41.468;13.560;2023-05-07T12:30:49;29.40;67.50
63317;DHT22;49822;41.468;13.560;2023-05-07T12:33:25;29.20;67.90
63317;DHT22;49822;41.468;13.560;2023-05-07T12:35:54;28.60;68.20
63317;DHT22;49822;41.468;13.560;2023-05-07T12:38:21;27.90;69.50
63317;DHT22;49822;41.468;13.560;2023-05-07T12:40:48;27.40;69.80
63317;DHT22;49822;41.468;13.560;2023-05-07T12:43:28;26.90;70.70
63317;DHT22;49822;41.468;13.560;2023-05-07T12:45:58;27.10;70.80
63317;DHT22;49822;41.468;13.560;2023-05-07T12:48:25;27.00;70.80
63317;DHT22;49822;41.468;13.560;2023-05-07T12:51:00;26.90;72.60
63317;DHT22;49822;41.468;13.560;2023-05-07T12:53:27;26.50;71.60
63317;DHT22;49822;41.468;13.560;2023-05-07T12:55:55;26.40;70.50
63317;DHT22;49822;41.468;13.560;2023-05-07T12:58:29;26.20;73.30
63317;DHT22;49822;41.468;13.560;2023-05-07T13:00:56;26.10;72.20
63317;DHT22;49822;41.468;13.560;2023-05-07T13:03:29;25.80;74.30
63317;DHT22;49822;41.468;13.560;2023-05-07T13:06:09;25.90;72.90
63317;DHT22;49822;41.468;13.560;2023-05-07T13:08:37;25.80;74.00
63317;DHT22;49822;41.468;13.560;2023-05-07T13:11:08;26.00;73.00
63317;DHT22;49822;41.468;13.560;2023-05-07T13:13:36;26.10;72.70
63317;DHT22;49822;41.468;13.560;2023-05-07T13:16:03;26.10;73.40
63317;DHT22;49822;41.468;13.560;2023-05-07T13:18:33;26.40;73.00
63317;DHT22;49822;41.468;13.560;2023-05-07T13:20:59;26.20;73.60
63317;DHT22;49822;41.468;13.560;2023-05-07T13:23:26;26.10;73.80
63317;DHT22;49822;41.468;13.560;2023-05-07T13:25:53;26.10;73.00
63317;DHT22;49822;41.468;13.560;2023-05-07T13:28:23;26.10;73.60
63317;DHT22;49822;41.468;13.560;2023-05-07T13:30:51;26.10;73.70
63317;DHT22;49822;41.468;13.560;2023-05-07T13:33:18;26.20;73.20
63317;DHT22;49822;41.468;13.560;2023-05-07T13:35:44;25.90;73.10
63317;DHT22;49822;41.468;13.560;2023-05-07T13:38:10;25.80;73.00
63317;DHT22;49822;41.468;13.560;2023-05-07T13:40:37;25.60;74.10
63317;DHT22;49822;41.468;13.560;2023-05-07T13:43:05;25.80;73.50
63317;DHT22;49822;41.468;13.560;2023-05-07T13:45:32;25.80;69.10
63317;DHT22;49822;41.468;13.560;2023-05-07T13:48:00;25.90;70.90
63317;DHT22;49822;41.468;13.560;2023-05-07T13:50:26;25.80;71.70
63317;DHT22;49822;41.468;13.560;2023-05-07T13:52:52;25.70;68.20
63317;DHT22;49822;41.468;13.560;2023-05-07T13:55:19;25.50;68.50
63317;DHT22;49822;41.468;13.560;2023-05-07T13:57:46;25.50;69.00
63317;DHT22;49822;41.468;13.560;2023-05-07T14:00:14;25.50;67.30
63317;DHT22;49822;41.468;13.560;2023-05-07T14:02:41;25.80;66.50
63317;DHT22;49822;41.468;13.560;2023-05-07T14:05:07;26.00;66.90
63317;DHT22;49822;41.468;13.560;2023-05-07T14:07:35;26.10;63.60
63317;DHT22;49822;41.468;13.560;2023-05-07T14:10:01;26.30;62.90
63317;DHT22;49822;41.468;13.560;2023-05-07T14:12:28;26.30;63.20
63317;DHT22;49822;41.468;13.560;2023-05-07T14:14:54;26.60;64.90
63317;DHT22;49822;41.468;13.560;2023-05-07T14:17:21;26.70;62.50
63317;DHT22;49822;41.468;13.560;2023-05-07T14:19:49;26.70;61.70
63317;DHT22;49822;41.468;13.560;2023-05-07T14:22:15;26.70;62.20
63317;DHT22;49822;41.468;13.560;2023-05-07T14:24:41;26.70;61.40
63317;DHT22;49822;41.468;13.560;2023-05-07T14:27:07;26.90;62.60
63317;DHT22;49822;41.468;13.560;2023-05-07T14:29:33;26.60;63.40
63317;DHT22;49822;41.468;13.560;2023-05-07T14:32:01;26.70;60.60
63317;DHT22;49822;41.468;13.560;2023-05-07T14:34:29;26.60;57.90
63317;DHT22;49822;41.468;13.560;2023-05-07T14:36:55;26.60;59.80
63317;DHT22;49822;41.468;13.560;2023-05-07T14:39:21;26.10;58.50
63317;DHT22;49822;41.468;13.560;2023-05-07T14:41:47;26.20;58.70
63317;DHT22;49822;41.468;13.560;2023-05-07T14:44:16;26.30;59.50
63317;DHT22;49822;41.468;13.560;2023-05-07T14:46:43;26.10;59.30
63317;DHT22;49822;41.468;13.560;2023-05-07T14:49:10;26.00;59.80
63317;DHT22;49822;41.468;13.560;2023-05-07T14:51:44;25.90;59.50
63317;DHT22;49822;41.468;13.560;2023-05-07T14:54:10;25.90;58.50
63317;DHT22;49822;41.468;13.560;2023-05-07T14:56:36;25.80;57.80
63317;DHT22;49822;41.468;13.560;2023-05-07T14:59:03;25.90;59.70
63317;DHT22;49822;41.468;13.560;2023-05-07T15:01:29;25.90;61.10
63317;DHT22;49822;41.468;13.560;2023-05-07T15:03:55;25.90;61.20
63317;DHT22;49822;41.468;13.560;2023-05-07T15:06:22;25.70;56.20
63317;DHT22;49822;41.468;13.560;2023-05-07T15:08:48;25.90;58.00
63317;DHT22;49822;41.468;13.560;2023-05-07T15:11:16;26.00;58.10
63317;DHT22;49822;41.468;13.560;2023-05-07T15:13:42;25.90;59.30
63317;DHT22;49822;41.468;13.560;2023-05-07T15:16:08;25.50;57.00
63317;DHT22;49822;41.468;13.560;2023-05-07T15:18:35;25.50;58.30
63317;DHT22;49822;41.468;13.560;2023-05-07T15:21:01;25.50;57.30
63317;DHT22;49822;41.468;13.560;2023-05-07T15:23:27;25.50;57.30
63317;DHT22;49822;41.468;13.560;2023-05-07T15:25:53;25.50;58.10
63317;DHT22;49822;41.468;13.560;2023-05-07T15:28:19;25.60;58.60
63317;DHT22;49822;41.468;13.560;2023-05-07T15:30:47;25.60;60.00
63317;DHT22;49822;41.468;13.560;2023-05-07T15:33:13;25.50;60.80
63317;DHT22;49822;41.468;13.560;2023-05-07T15:35:40;25.40;60.20
63317;DHT22;49822;41.468;13.560;2023-05-07T15:38:05;25.40;59.30
63317;DHT22;49822;41.468;13.560;2023-05-07T15:40:36;25.30;59.50
63317;DHT22;49822;41.468;13.560;2023-05-07T15:43:08;25.40;60.30
63317;DHT22;49822;41.468;13.560;2023-05-07T15:45:40;25.40;59.50